Time;durP1;ratioP1;P1;durP2;ratioP2;P2;SDS_P1;SDS_P2;PMS_P1;PMS_P2;Temp;Humidity;BMP_temperature;BMP_pressure;BME280_temperature;BME280_humidity;BME280_pressure;Samples;Min_cycle;Max_cycle;Signal;HPM_P1;HPM_P2
2022/06/08 00:00:58;;;;;;;2.38;0.40;;;17.50;99.90;;;;;;5077633;28;20068;-81
2022/06/08 00:03:28;;;;;;;1.88;0.60;;;17.40;99.90;;;;;;5075542;28;20099;-81
2022/06/08 00:05:54;;;;;;;2.90;0.57;;;17.50;99.90;;;;;;5075081;28;20184;-81
2022/06/08 00:08:20;;;;;;;0.60;0.60;;;17.40;99.90;;;;;;5074208;28;20107;-81
2022/06/08 00:10:46;;;;;;;2.05;0.60;;;17.50;99.90;;;;;;5076688;28;20059;-80
2022/06/08 00:13:12;;;;;;;11.23;1.00;;;17.50;99.90;;;;;;5084489;28;20462;-81
2022/06/08 00:15:38;;;;;;;1.00;0.70;;;17.50;99.90;;;;;;5078547;28;20021;-79
2022/06/08 00:18:06;;;;;;;2.92;0.65;;;17.50;99.90;;;;;;5078599;28;20020;-79
2022/06/08 00:20:32;;;;;;;0.80;0.50;;;17.50;99.90;;;;;;5077711;28;20383;-80
2022/06/08 00:22:58;;;;;;;2.00;1.15;;;17.50;99.90;;;;;;5077638;28;20020;-80
2022/06/08 00:25:24;;;;;;;7.85;0.85;;;17.50;99.90;;;;;;5076665;28;20429;-80
2022/06/08 00:27:49;;;;;;;2.53;0.98;;;17.50;99.90;;;;;;5078514;28;20028;-79
2022/06/08 00:30:15;;;;;;;2.45;0.90;;;17.50;99.90;;;;;;5082287;28;20033;-80
2022/06/08 00:32:41;;;;;;;4.70;0.90;;;17.50;99.90;;;;;;5089710;28;20038;-79
2022/06/08 00:35:07;;;;;;;5.60;0.73;;;17.50;99.90;;;;;;5073283;28;20059;-79
2022/06/08 00:37:33;;;;;;;5.32;0.95;;;17.50;99.90;;;;;;5078042;28;20029;-79
2022/06/08 00:39:59;;;;;;;1.10;0.85;;;17.50;99.90;;;;;;5077530;28;20024;-79
2022/06/08 00:42:25;;;;;;;0.77;0.63;;;17.60;99.90;;;;;;5079950;28;20031;-79
2022/06/08 00:44:59;;;;;;;0.50;0.50;;;17.50;99.90;;;;;;5078817;28;20066;-79
2022/06/08 00:47:34;;;;;;;4.43;0.75;;;17.60;99.90;;;;;;5079416;28;20082;-78
2022/06/08 00:50:12;;;;;;;4.00;0.80;;;17.50;99.90;;;;;;5075891;28;20017;-79
2022/06/08 00:52:38;;;;;;;1.83;0.73;;;17.40;99.90;;;;;;5078136;28;20399;-79
2022/06/08 00:55:08;;;;;;;6.05;0.90;;;17.40;99.90;;;;;;5079317;28;20021;-79
2022/06/08 00:57:41;;;;;;;1.40;0.57;;;17.40;99.90;;;;;;5077712;28;20035;-78
2022/06/08 01:00:18;;;;;;;1.67;0.77;;;17.40;99.90;;;;;;5079140;28;20482;-78
2022/06/08 01:02:44;;;;;;;0.65;0.40;;;17.40;99.90;;;;;;5077902;28;20463;-79
2022/06/08 01:05:21;;;;;;;1.67;0.52;;;17.40;99.90;;;;;;5077489;28;20095;-78
2022/06/08 01:07:48;;;;;;;0.95;0.60;;;17.40;99.90;;;;;;5078221;28;20039;-79
2022/06/08 01:10:17;;;;;;;1.52;0.60;;;17.40;99.90;;;;;;5076590;28;20043;-79
2022/06/08 01:12:43;;;;;;;3.92;0.60;;;17.40;99.90;;;;;;5089113;28;20139;-81
2022/06/08 01:15:16;;;;;;;2.20;0.70;;;17.40;99.90;;;;;;5077295;28;20062;-81
2022/06/08 01:17:41;;;;;;;2.30;0.63;;;17.50;99.90;;;;;;5078484;28;20032;-80
2022/06/08 01:20:10;;;;;;;1.08;0.40;;;17.50;99.90;;;;;;5081334;28;20324;-80
2022/06/08 01:22:36;;;;;;;1.00;0.38;;;17.40;99.90;;;;;;5083903;28;20432;-80
2022/06/08 01:25:03;;;;;;;1.05;0.50;;;17.40;99.90;;;;;;5081238;28;20028;-81
2022/06/08 01:28:02;;;;;;;0.75;0.65;;;17.50;99.90;;;;;;5082701;28;20055;-82
2022/06/08 01:30:57;;;;;;;1.48;0.60;;;17.50;99.90;;;;;;5079418;28;20029;-82
2022/06/08 01:33:41;;;;;;;0.93;0.40;;;17.50;99.90;;;;;;5080444;28;20060;-80
2022/06/08 01:36:31;;;;;;;0.32;0.32;;;17.40;99.90;;;;;;5079765;28;20433;-81
2022/06/08 01:39:07;;;;;;;0.70;0.68;;;17.40;99.90;;;;;;5060611;28;20024;-82
2022/06/08 01:42:02;;;;;;;0.63;0.57;;;17.40;99.90;;;;;;5084831;28;20020;-81
2022/06/08 01:48:14;;;;;;;0.68;0.60;;;17.30;99.90;;;;;;5075974;28;20142;-81
2022/06/08 01:51:09;;;;;;;1.10;0.57;;;17.30;99.90;;;;;;5080045;28;20016;-80
2022/06/08 01:53:56;;;;;;;1.75;0.80;;;17.20;99.90;;;;;;5086222;28;20440;-80
2022/06/08 01:56:25;;;;;;;2.38;0.70;;;17.20;99.90;;;;;;5074024;28;20557;-80
2022/06/08 01:59:13;;;;;;;3.40;1.10;;;17.20;99.90;;;;;;5089092;28;20490;-80
2022/06/08 02:01:56;;;;;;;1.88;0.88;;;17.20;99.90;;;;;;5081083;28;20424;-80
2022/06/08 02:04:29;;;;;;;1.90;0.63;;;17.10;99.90;;;;;;5084569;28;20024;-80
2022/06/08 02:07:16;;;;;;;1.55;0.70;;;17.20;99.90;;;;;;5083412;28;20051;-81
2022/06/08 02:10:01;;;;;;;2.70;0.80;;;17.20;99.90;;;;;;5079435;28;20023;-80
2022/06/08 02:12:30;;;;;;;2.17;0.85;;;17.20;99.90;;;;;;5082115;28;20142;-80
2022/06/08 02:15:23;;;;;;;2.05;0.98;;;17.20;99.90;;;;;;5080665;28;20013;-80
2022/06/08 02:17:57;;;;;;;0.50;0.50;;;17.20;99.90;;;;;;5089496;28;20086;-80
2022/06/08 02:20:46;;;;;;;0.88;0.50;;;17.20;99.90;;;;;;5080886;28;20503;-80
2022/06/08 02:23:17;;;;;;;1.25;0.52;;;17.10;99.90;;;;;;5069718;28;20039;-79
2022/06/08 02:25:52;;;;;;;0.95;0.45;;;17.10;99.90;;;;;;5082506;28;20103;-79
2022/06/08 02:28:33;;;;;;;3.25;1.10;;;17.00;99.90;;;;;;5085025;28;20021;-81
2022/06/08 02:31:13;;;;;;;7.30;1.05;;;16.90;99.90;;;;;;5080211;28;20044;-81
2022/06/08 02:36:40;;;;;;;0.93;0.80;;;16.60;99.90;;;;;;5080696;28;20513;-80
2022/06/08 02:39:29;;;;;;;2.90;1.15;;;16.50;99.90;;;;;;5078076;28;20086;-80
2022/06/08 02:42:18;;;;;;;1.15;0.70;;;16.60;99.90;;;;;;5086996;28;20059;-80
2022/06/08 02:44:47;;;;;;;0.85;0.80;;;16.60;99.90;;;;;;5082948;28;20493;-80
2022/06/08 02:47:31;;;;;;;0.82;0.70;;;16.60;99.90;;;;;;5085287;28;20515;-80
2022/06/08 02:50:07;;;;;;;0.88;0.82;;;16.80;99.90;;;;;;5077024;28;20035;-80
2022/06/08 02:52:32;;;;;;;1.80;0.82;;;16.80;99.90;;;;;;5081060;28;20040;-80
2022/06/08 02:54:59;;;;;;;1.25;0.90;;;16.80;99.90;;;;;;5077856;28;20021;-80
2022/06/08 02:57:44;;;;;;;2.88;1.10;;;16.80;99.90;;;;;;5081145;28;20024;-80
2022/06/08 03:00:14;;;;;;;2.55;1.02;;;16.80;99.90;;;;;;5096773;28;20105;-80
2022/06/08 03:02:46;;;;;;;1.88;0.75;;;16.80;99.90;;;;;;5083129;28;20688;-80
2022/06/08 03:05:12;;;;;;;;;;;16.80;99.90;;;;;;5079311;28;20173;-80
2022/06/08 03:07:50;;;;;;;4.40;1.05;;;16.80;99.90;;;;;;5080666;28;20394;-80
2022/06/08 03:10:18;;;;;;;2.35;0.70;;;16.80;99.90;;;;;;5082111;28;20479;-80
2022/06/08 03:13:30;;;;;;;0.98;0.52;;;16.80;99.90;;;;;;5088482;28;20170;-80
2022/06/08 03:15:59;;;;;;;1.50;0.63;;;16.90;99.90;;;;;;5079581;28;20123;-80
2022/06/08 03:18:25;;;;;;;1.95;0.70;;;17.00;99.90;;;;;;5078425;28;20108;-80
2022/06/08 03:20:52;;;;;;;3.08;0.80;;;17.10;99.90;;;;;;5081438;28;20020;-80
2022/06/08 03:23:18;;;;;;;0.77;0.77;;;17.10;99.90;;;;;;5083097;28;20020;-81
2022/06/08 03:25:45;;;;;;;0.80;0.45;;;17.20;99.90;;;;;;5079113;28;20482;-81
2022/06/08 03:28:13;;;;;;;4.25;0.77;;;17.20;99.90;;;;;;5077816;28;20020;-81
2022/06/08 03:30:39;;;;;;;1.38;0.63;;;17.30;99.90;;;;;;5076078;28;20032;-80
2022/06/08 03:33:05;;;;;;;3.13;1.10;;;17.40;99.90;;;;;;5077868;28;20559;-80
2022/06/08 03:35:31;;;;;;;1.85;0.80;;;17.40;99.90;;;;;;5077182;28;20107;-80
2022/06/08 03:37:58;;;;;;;1.05;0.50;;;17.40;99.90;;;;;;5079428;28;20096;-80
2022/06/08 03:40:24;;;;;;;0.70;0.50;;;17.30;99.90;;;;;;5078077;28;20036;-80
2022/06/08 03:42:50;;;;;;;1.67;0.60;;;17.30;99.90;;;;;;5089820;28;20028;-80
2022/06/08 03:45:15;;;;;;;2.63;0.70;;;17.30;99.90;;;;;;5077123;28;20031;-80
2022/06/08 03:47:45;;;;;;;3.97;0.77;;;17.30;99.90;;;;;;5080023;28;20032;-80
2022/06/08 03:50:15;;;;;;;3.15;0.63;;;17.30;99.90;;;;;;5076883;28;20517;-80
2022/06/08 03:52:46;;;;;;;1.45;0.57;;;17.20;99.90;;;;;;5078640;28;20122;-80
2022/06/08 03:55:15;;;;;;;1.80;0.90;;;17.30;99.90;;;;;;5083033;28;20024;-80
2022/06/08 03:57:45;;;;;;;3.53;0.90;;;17.30;99.90;;;;;;5082240;28;20471;-81
2022/06/08 04:00:12;;;;;;;1.88;0.70;;;17.30;99.90;;;;;;5077587;28;20099;-81
2022/06/08 04:02:39;;;;;;;4.97;0.70;;;17.30;99.90;;;;;;5079463;28;20024;-81
2022/06/08 04:05:05;;;;;;;1.58;0.88;;;17.30;99.90;;;;;;5079665;28;20031;-80
2022/06/08 04:07:32;;;;;;;1.65;0.70;;;17.40;99.90;;;;;;5078319;28;20488;-80
2022/06/08 04:09:59;;;;;;;0.73;0.60;;;17.50;99.90;;;;;;5077909;28;20023;-81
2022/06/08 04:12:25;;;;;;;4.38;0.80;;;17.60;99.90;;;;;;5087597;28;20050;-81
2022/06/08 04:14:51;;;;;;;0.95;0.60;;;17.60;99.90;;;;;;5078483;28;20381;-81
2022/06/08 04:17:18;;;;;;;1.73;0.60;;;17.70;99.90;;;;;;5081918;28;20037;-81
2022/06/08 04:19:44;;;;;;;3.42;1.10;;;17.80;99.90;;;;;;5080224;28;20414;-83
2022/06/08 04:22:10;;;;;;;5.15;0.60;;;18.00;99.90;;;;;;5079932;28;20062;-82
2022/06/08 04:24:35;;;;;;;1.27;0.50;;;18.10;99.90;;;;;;5076525;28;20569;-84
2022/06/08 04:27:01;;;;;;;1.75;0.68;;;18.20;99.90;;;;;;5081815;28;20286;-84
2022/06/08 04:29:27;;;;;;;1.17;0.68;;;18.30;99.90;;;;;;5082661;28;20024;-84
2022/06/08 04:31:53;;;;;;;3.13;0.90;;;18.50;99.90;;;;;;5081040;28;20025;-84
2022/06/08 04:34:19;;;;;;;2.88;0.90;;;18.50;99.90;;;;;;5077035;28;20060;-85
2022/06/08 04:36:45;;;;;;;1.58;0.98;;;18.60;99.90;;;;;;5079982;28;20020;-85
2022/06/08 04:39:13;;;;;;;1.60;0.82;;;18.50;99.90;;;;;;5078483;28;20028;-82
2022/06/08 04:41:39;;;;;;;2.80;0.90;;;18.50;99.90;;;;;;5083343;28;20030;-83
2022/06/08 04:44:06;;;;;;;1.60;0.70;;;18.60;99.90;;;;;;5084372;28;20021;-83
2022/06/08 04:46:32;;;;;;;3.20;0.70;;;18.60;99.90;;;;;;5079520;28;20032;-83
2022/06/08 04:48:58;;;;;;;6.03;0.57;;;18.60;99.90;;;;;;5074604;28;20174;-83
2022/06/08 04:51:24;;;;;;;0.70;0.70;;;18.50;99.90;;;;;;5080070;28;20035;-83
2022/06/08 04:53:49;;;;;;;0.40;0.40;;;18.50;99.90;;;;;;5076884;28;20024;-83
2022/06/08 04:56:16;;;;;;;2.53;0.50;;;18.40;99.90;;;;;;5082777;28;20497;-83
2022/06/08 04:58:42;;;;;;;0.50;0.50;;;18.40;99.90;;;;;;5080755;28;20020;-83
2022/06/08 05:01:08;;;;;;;1.13;0.85;;;18.50;99.90;;;;;;5082535;28;20035;-83
2022/06/08 05:03:35;;;;;;;0.90;0.35;;;18.50;99.90;;;;;;5077753;28;20047;-83
2022/06/08 05:06:01;;;;;;;1.02;0.70;;;18.50;99.90;;;;;;5085852;28;20027;-83
2022/06/08 05:08:27;;;;;;;0.82;0.57;;;18.50;99.90;;;;;;5080578;28;20518;-83
2022/06/08 05:10:54;;;;;;;1.17;0.60;;;18.60;99.90;;;;;;5083377;28;20050;-84
2022/06/08 05:13:22;;;;;;;0.77;0.57;;;18.60;99.90;;;;;;5088187;28;20158;-83
2022/06/08 05:15:49;;;;;;;2.03;0.68;;;18.70;99.90;;;;;;5081525;28;20131;-82
2022/06/08 05:18:18;;;;;;;1.17;0.52;;;18.70;99.90;;;;;;5079299;28;20024;-83
2022/06/08 05:20:45;;;;;;;5.93;0.85;;;18.70;99.90;;;;;;5087888;28;20012;-83
2022/06/08 05:23:15;;;;;;;4.15;0.60;;;18.70;99.90;;;;;;5085246;28;20108;-83
2022/06/08 05:25:42;;;;;;;1.80;0.50;;;18.80;99.90;;;;;;5078700;28;20020;-83
2022/06/08 05:28:09;;;;;;;2.78;0.60;;;18.80;99.90;;;;;;5080588;28;20364;-83
2022/06/08 05:30:36;;;;;;;3.05;0.77;;;18.80;99.90;;;;;;5080284;28;20555;-83
2022/06/08 05:33:03;;;;;;;2.75;0.63;;;18.80;99.90;;;;;;5080055;28;20076;-83
2022/06/08 05:35:30;;;;;;;1.38;0.65;;;18.70;99.90;;;;;;5080250;28;20217;-83
2022/06/08 05:37:56;;;;;;;1.23;0.65;;;18.70;99.90;;;;;;5079749;28;20024;-85
2022/06/08 05:40:24;;;;;;;2.83;0.70;;;18.70;99.90;;;;;;5074690;28;20178;-82
2022/06/08 05:42:50;;;;;;;2.53;0.50;;;18.80;99.90;;;;;;5077303;28;20020;-83
2022/06/08 05:45:22;;;;;;;1.95;0.60;;;18.90;99.90;;;;;;5080174;28;20028;-85
2022/06/08 05:47:48;;;;;;;0.77;0.55;;;19.00;99.90;;;;;;5074464;28;20390;-84
2022/06/08 05:50:15;;;;;;;1.92;0.50;;;19.00;99.90;;;;;;5078814;28;20231;-82
2022/06/08 05:52:40;;;;;;;0.75;0.55;;;19.10;99.90;;;;;;5080354;28;20029;-83
2022/06/08 05:55:07;;;;;;;2.47;0.70;;;19.10;99.90;;;;;;5079411;28;20027;-83
2022/06/08 05:57:33;;;;;;;1.75;1.00;;;19.10;99.90;;;;;;5081019;28;20025;-85
2022/06/08 06:00:01;;;;;;;0.73;0.63;;;19.10;99.90;;;;;;5078340;28;20070;-83
2022/06/08 06:02:28;;;;;;;1.88;0.52;;;19.10;99.90;;;;;;5082276;28;20013;-84
2022/06/08 06:04:53;;;;;;;1.92;0.70;;;19.10;99.90;;;;;;5078477;28;20035;-80
2022/06/08 06:07:20;;;;;;;1.73;0.70;;;19.20;99.90;;;;;;5081404;28;20021;-80
2022/06/08 06:09:45;;;;;;;4.40;0.85;;;19.20;99.90;;;;;;5079381;28;20020;-81
2022/06/08 06:12:11;;;;;;;2.50;0.60;;;19.20;99.90;;;;;;5080727;28;20047;-80
2022/06/08 06:14:37;;;;;;;2.38;0.70;;;19.20;99.90;;;;;;5083595;28;20029;-80
2022/06/08 06:17:03;;;;;;;0.57;0.52;;;19.30;99.90;;;;;;5082639;28;20028;-80
2022/06/08 06:19:29;;;;;;;3.65;0.60;;;19.30;99.90;;;;;;5083388;28;20487;-80
2022/06/08 06:21:55;;;;;;;2.13;0.90;;;19.30;99.90;;;;;;5080526;28;20039;-81
2022/06/08 06:24:20;;;;;;;1.58;0.70;;;19.40;99.90;;;;;;5064772;28;20043;-80
2022/06/08 06:26:46;;;;;;;4.00;0.50;;;19.40;99.90;;;;;;5072932;28;20395;-81
2022/06/08 06:29:12;;;;;;;5.05;1.00;;;19.50;99.90;;;;;;5073783;28;20039;-80
2022/06/08 06:31:51;;;;;;;0.73;0.50;;;19.50;99.90;;;;;;5074266;28;20364;-81
2022/06/08 06:34:21;;;;;;;1.55;0.63;;;19.60;99.90;;;;;;5085038;28;20043;-79
2022/06/08 06:36:48;;;;;;;1.13;0.70;;;19.70;99.90;;;;;;5076014;28;20027;-80
2022/06/08 06:39:14;;;;;;;1.67;0.65;;;19.90;99.90;;;;;;5078405;28;20024;-80
2022/06/08 06:41:40;;;;;;;1.65;0.65;;;20.00;99.90;;;;;;5071685;28;20356;-81
2022/06/08 06:44:06;;;;;;;2.40;0.50;;;20.20;99.90;;;;;;5072883;28;20020;-81
2022/06/08 06:46:31;;;;;;;1.67;0.63;;;20.40;99.90;;;;;;5080894;28;20134;-81
2022/06/08 06:48:57;;;;;;;3.13;0.70;;;20.60;99.90;;;;;;5075107;28;20526;-81
2022/06/08 06:51:23;;;;;;;2.70;0.60;;;20.90;99.90;;;;;;5072913;28;20379;-79
2022/06/08 06:53:48;;;;;;;0.60;0.57;;;21.10;99.90;;;;;;5071944;28;20041;-79
2022/06/08 06:56:14;;;;;;;1.70;0.63;;;21.30;99.90;;;;;;5078620;28;20020;-81
2022/06/08 06:58:40;;;;;;;0.65;0.50;;;21.40;99.90;;;;;;5072330;28;20051;-79
2022/06/08 07:01:06;;;;;;;1.50;0.70;;;21.50;99.90;;;;;;5077347;28;20020;-79
2022/06/08 07:03:33;;;;;;;0.70;0.57;;;21.50;99.90;;;;;;5069202;28;20153;-79
2022/06/08 07:05:59;;;;;;;0.93;0.52;;;21.50;99.90;;;;;;5075130;28;20367;-79
2022/06/08 07:08:25;;;;;;;1.52;0.65;;;21.50;99.90;;;;;;5075567;28;20024;-79
2022/06/08 07:13:35;;;;;;;2.30;0.55;;;21.70;99.90;;;;;;5087147;28;20112;-79
2022/06/08 07:16:01;;;;;;;2.10;0.40;;;21.80;99.90;;;;;;5077535;28;20056;-79
2022/06/08 07:18:27;;;;;;;1.33;0.70;;;22.00;99.90;;;;;;5074173;28;20043;-80
2022/06/08 07:20:53;;;;;;;2.88;0.70;;;22.10;99.90;;;;;;5081020;28;20099;-79
2022/06/08 07:23:19;;;;;;;2.65;0.70;;;22.00;99.90;;;;;;5077297;28;20051;-79
2022/06/08 07:25:45;;;;;;;1.45;0.70;;;21.60;99.90;;;;;;5074504;28;20626;-79
2022/06/08 07:28:10;;;;;;;3.15;0.70;;;21.20;99.90;;;;;;5078152;28;20077;-79
2022/06/08 07:30:36;;;;;;;2.65;0.50;;;21.20;99.90;;;;;;5079133;28;20059;-79
2022/06/08 07:33:03;;;;;;;1.23;0.65;;;21.10;99.90;;;;;;5079315;28;20435;-78
2022/06/08 07:35:29;;;;;;;0.43;0.43;;;21.10;99.90;;;;;;5078327;28;20471;-78
2022/06/08 07:37:55;;;;;;;1.13;0.68;;;21.20;99.90;;;;;;5080398;28;20033;-79
2022/06/08 07:40:22;;;;;;;1.25;0.80;;;21.40;99.90;;;;;;5075227;28;20052;-79
2022/06/08 07:42:47;;;;;;;4.22;0.80;;;21.60;99.90;;;;;;5083887;28;20035;-79
2022/06/08 07:45:13;;;;;;;2.40;1.00;;;21.80;99.90;;;;;;5069648;28;20074;-78
2022/06/08 07:50:25;;;;;;;2.00;0.70;;;22.10;99.90;;;;;;5079959;28;20141;-79
2022/06/08 07:52:51;;;;;;;0.93;0.70;;;22.30;99.90;;;;;;5081860;28;20038;-79
2022/06/08 07:55:17;;;;;;;0.80;0.80;;;22.40;99.90;;;;;;5079332;28;20017;-79
2022/06/08 07:57:43;;;;;;;0.77;0.57;;;22.60;99.90;;;;;;5078782;28;20108;-79
2022/06/08 08:00:10;;;;;;;1.15;0.50;;;22.70;99.90;;;;;;5077775;28;20449;-79
2022/06/08 08:02:36;;;;;;;1.85;0.47;;;22.70;99.90;;;;;;5080036;28;20025;-80
2022/06/08 08:05:02;;;;;;;3.88;0.70;;;22.70;99.90;;;;;;5080424;28;20108;-79
2022/06/08 08:07:28;;;;;;;1.33;0.60;;;22.60;99.90;;;;;;5073797;28;20028;-80
2022/06/08 08:09:54;;;;;;;2.63;0.93;;;22.50;99.90;;;;;;5078216;28;20031;-79
2022/06/08 08:12:19;;;;;;;1.05;0.70;;;22.30;99.90;;;;;;5087156;28;20044;-80
2022/06/08 08:14:45;;;;;;;4.05;0.50;;;22.30;99.90;;;;;;5083575;28;20031;-79
2022/06/08 08:17:10;;;;;;;1.88;0.73;;;22.40;99.90;;;;;;5081367;28;20474;-82
2022/06/08 08:19:55;;;;;;;0.50;0.50;;;22.50;99.90;;;;;;5081368;28;20476;-80
2022/06/08 08:22:21;;;;;;;1.45;0.60;;;22.40;99.90;;;;;;5079941;28;20029;-79
2022/06/08 08:24:47;;;;;;;0.77;0.50;;;22.40;99.90;;;;;;5079716;28;20023;-79
2022/06/08 08:27:13;;;;;;;0.45;0.40;;;22.40;99.90;;;;;;5081482;28;20016;-79
2022/06/08 08:29:40;;;;;;;2.38;0.60;;;22.40;99.90;;;;;;5089252;28;20029;-80
2022/06/08 08:32:09;;;;;;;0.65;0.50;;;22.30;99.90;;;;;;5085147;28;20077;-79
2022/06/08 08:34:35;;;;;;;1.95;0.70;;;22.20;99.90;;;;;;5085329;28;20019;-79
2022/06/08 08:37:01;;;;;;;1.13;0.63;;;22.10;99.90;;;;;;5086346;28;20479;-79
2022/06/08 08:39:27;;;;;;;0.57;0.50;;;22.10;99.90;;;;;;5085469;28;20023;-79
2022/06/08 08:44:45;;;;;;;0.90;0.55;;;22.20;99.90;;;;;;5082228;28;20498;-79
2022/06/08 08:47:39;;;;;;;1.85;0.50;;;22.30;99.90;;;;;;5085377;28;20065;-79
2022/06/08 08:50:34;;;;;;;2.38;0.82;;;22.40;99.90;;;;;;5080341;28;20056;-79
2022/06/08 08:53:16;;;;;;;0.57;0.50;;;22.50;99.90;;;;;;5085466;28;20037;-80
2022/06/08 08:55:44;;;;;;;0.70;0.67;;;22.60;99.90;;;;;;5079792;28;20479;-80
2022/06/08 08:58:14;;;;;;;2.20;0.80;;;22.70;99.90;;;;;;5081362;28;20024;-79
2022/06/08 09:01:01;;;;;;;2.97;0.75;;;22.90;99.90;;;;;;5079488;28;20466;-80
2022/06/08 09:03:29;;;;;;;1.42;0.80;;;23.10;99.90;;;;;;5081874;28;20027;-80
2022/06/08 09:06:00;;;;;;;1.80;0.75;;;23.20;99.90;;;;;;5082264;28;20035;-79
2022/06/08 09:08:27;;;;;;;1.02;0.80;;;23.30;99.90;;;;;;5079765;28;20025;-79
2022/06/08 09:10:57;;;;;;;2.85;0.85;;;23.40;99.90;;;;;;5082333;28;20498;-79
2022/06/08 09:13:31;;;;;;;2.58;0.80;;;23.50;99.90;;;;;;5090635;28;20062;-79
2022/06/08 09:15:59;;;;;;;0.60;0.60;;;23.70;99.90;;;;;;5081492;28;20020;-79
2022/06/08 09:18:39;;;;;;;0.88;0.65;;;23.70;99.90;;;;;;5087125;28;20503;-79
2022/06/08 09:21:29;;;;;;;3.13;0.82;;;23.70;99.90;;;;;;5086897;28;20024;-80
2022/06/08 09:24:16;;;;;;;1.73;0.60;;;23.80;99.90;;;;;;5068293;28;20055;-79
2022/06/08 09:26:42;;;;;;;3.00;0.85;;;23.80;99.90;;;;;;5087550;28;20107;-80
2022/06/08 09:29:21;;;;;;;1.48;0.50;;;23.90;99.90;;;;;;5078985;28;20107;-79
2022/06/08 09:31:50;;;;;;;1.13;0.70;;;23.90;99.90;;;;;;5097649;28;20489;-80
2022/06/08 09:34:34;;;;;;;0.85;0.50;;;24.00;99.90;;;;;;5086477;28;20028;-80
2022/06/08 09:37:03;;;;;;;1.65;0.60;;;24.30;99.90;;;;;;5079957;28;20028;-79
2022/06/08 09:39:29;;;;;;;0.55;0.50;;;24.50;99.90;;;;;;5077391;28;20061;-79
2022/06/08 09:41:55;;;;;;;1.08;0.50;;;24.50;99.90;;;;;;5085559;28;20031;-79
2022/06/08 09:44:29;;;;;;;4.68;0.68;;;24.50;99.90;;;;;;5087167;28;20020;-80
2022/06/08 09:53:22;;;;;;;0.40;0.40;;;24.90;99.90;;;;;;5084207;28;20043;-80
2022/06/08 09:55:53;;;;;;;0.60;0.43;;;25.00;99.90;;;;;;5070731;28;20020;-80
2022/06/08 09:58:37;;;;;;;0.77;0.50;;;25.10;99.90;;;;;;5080910;28;20098;-82
2022/06/08 10:01:12;;;;;;;0.85;0.70;;;25.10;99.90;;;;;;5085592;28;20028;-80
2022/06/08 10:03:49;;;;;;;2.30;0.50;;;25.20;99.90;;;;;;5079247;28;20028;-80
2022/06/08 10:06:39;;;;;;;2.47;0.60;;;25.20;99.90;;;;;;5078834;28;20017;-80
2022/06/08 10:09:19;;;;;;;1.13;0.70;;;25.20;99.90;;;;;;5030290;28;20537;-81
2022/06/08 10:12:00;;;;;;;0.45;0.45;;;25.10;99.90;;;;;;5078402;28;20045;-80
2022/06/08 10:15:01;;;;;;;3.15;0.52;;;25.20;99.90;;;;;;5082729;28;20032;-80
2022/06/08 10:17:43;;;;;;;0.95;0.50;;;25.40;99.90;;;;;;5074598;28;20021;-81
2022/06/08 10:20:11;;;;;;;1.02;0.50;;;25.60;99.90;;;;;;5078231;28;20028;-80
2022/06/08 10:22:43;;;;;;;0.90;0.63;;;25.60;99.90;;;;;;5079588;28;20031;-81
2022/06/08 10:25:18;;;;;;;1.02;0.60;;;25.70;99.90;;;;;;5078224;28;20090;-81
2022/06/08 10:28:18;;;;;;;1.48;0.70;;;25.90;99.90;;;;;;5078446;28;20055;-81
2022/06/08 10:31:03;;;;;;;0.73;0.50;;;25.90;99.90;;;;;;5055506;28;20098;-81
2022/06/08 10:33:42;;;;;;;2.40;0.50;;;25.80;99.90;;;;;;5074616;28;20632;-80
2022/06/08 10:36:10;;;;;;;1.00;0.43;;;25.70;99.90;;;;;;5076759;28;20027;-81
2022/06/08 10:38:42;;;;;;;0.80;0.52;;;25.60;99.90;;;;;;5074907;28;20024;-81
2022/06/08 10:44:05;;;;;;;0.40;0.40;;;25.10;99.90;;;;;;5034153;28;20096;-80
2022/06/08 10:46:36;;;;;;;0.22;0.22;;;25.30;99.90;;;;;;5077401;28;20092;-81
2022/06/08 10:49:01;;;;;;;0.93;0.63;;;25.50;99.90;;;;;;5073014;28;20029;-81
2022/06/08 10:51:35;;;;;;;0.50;0.45;;;25.60;99.90;;;;;;5077147;28;20469;-81
2022/06/08 10:56:55;;;;;;;5.20;0.57;;;25.90;99.90;;;;;;5077676;28;20032;-82
2022/06/08 10:59:29;;;;;;;1.30;0.60;;;25.80;99.90;;;;;;5079353;28;20029;-81
2022/06/08 11:02:15;;;;;;;1.20;0.73;;;25.80;99.90;;;;;;5076345;28;20020;-80
2022/06/08 11:04:50;;;;;;;1.75;0.50;;;26.20;99.90;;;;;;5074210;28;20069;-80
2022/06/08 11:07:18;;;;;;;1.13;0.57;;;26.40;99.90;;;;;;5077934;28;20031;-81
2022/06/08 11:09:48;;;;;;;6.82;1.35;;;26.30;99.90;;;;;;5075981;28;20163;-81
2022/06/08 11:12:14;;;;;;;0.80;0.52;;;26.20;99.90;;;;;;5092478;28;20118;-81
2022/06/08 11:14:43;;;;;;;0.32;0.32;;;26.10;99.90;;;;;;5076527;28;20070;-80
2022/06/08 11:17:24;;;;;;;4.13;0.70;;;26.30;99.90;;;;;;5076176;28;20039;-81
2022/06/08 11:20:03;;;;;;;1.13;0.50;;;26.50;99.90;;;;;;5075329;28;20035;-81
2022/06/08 11:22:41;;;;;;;0.63;0.50;;;26.80;99.90;;;;;;5072862;28;20029;-81
2022/06/08 11:25:15;;;;;;;1.20;0.60;;;27.10;99.90;;;;;;5077404;28;20035;-81
2022/06/08 11:27:41;;;;;;;1.27;0.60;;;27.30;99.90;;;;;;5076616;28;20020;-81
2022/06/08 11:30:22;;;;;;;3.42;0.60;;;27.00;99.90;;;;;;5074974;28;20038;-82
2022/06/08 11:32:51;;;;;;;4.10;1.02;;;26.70;99.90;;;;;;5077604;28;20043;-81
2022/06/08 11:35:56;;;;;;;1.05;0.57;;;26.70;99.90;;;;;;5074203;28;20482;-81
2022/06/08 11:39:01;;;;;;;1.38;0.60;;;27.20;99.90;;;;;;5076669;28;20056;-81
2022/06/08 11:41:39;;;;;;;1.40;0.57;;;27.40;99.90;;;;;;5069628;28;20035;-81
2022/06/08 11:44:18;;;;;;;0.95;0.40;;;27.30;99.90;;;;;;5065164;28;20105;-81
2022/06/08 11:46:49;;;;;;;2.60;0.60;;;27.40;99.90;;;;;;5077313;28;20023;-81
2022/06/08 11:49:38;;;;;;;1.48;0.50;;;27.40;99.90;;;;;;5071579;28;20055;-81
2022/06/08 11:52:36;;;;;;;0.57;0.43;;;27.40;99.90;;;;;;5087920;28;20041;-81
2022/06/08 11:55:05;;;;;;;1.05;0.50;;;27.50;99.90;;;;;;5072563;28;20025;-81
2022/06/08 11:57:32;;;;;;;2.40;0.30;;;27.60;99.90;;;;;;5075097;28;20501;-81
2022/06/08 11:59:59;;;;;;;0.82;0.40;;;27.80;99.90;;;;;;5073805;28;20101;-81
2022/06/08 12:02:36;;;;;;;1.92;0.50;;;29.70;99.90;;;;;;5077219;28;20042;-81
2022/06/08 12:05:04;;;;;;;0.40;0.40;;;34.20;99.90;;;;;;5076344;28;20438;-81
2022/06/08 12:07:52;;;;;;;4.78;0.60;;;37.80;97.90;;;;;;5078902;28;20034;-82
2022/06/08 12:10:22;;;;;;;1.45;0.40;;;40.50;91.00;;;;;;5079484;28;20115;-81
2022/06/08 12:12:48;;;;;;;0.30;0.30;;;42.30;81.10;;;;;;5075169;28;20052;-81
2022/06/08 12:15:34;;;;;;;0.50;0.40;;;43.50;74.60;;;;;;5076844;28;20048;-81
2022/06/08 12:18:35;;;;;;;0.95;0.47;;;43.20;70.30;;;;;;5070305;28;20677;-81
2022/06/08 12:21:21;;;;;;;3.67;0.68;;;43.30;67.40;;;;;;5073389;28;20036;-81
2022/06/08 12:24:18;;;;;;;2.33;0.68;;;42.20;65.30;;;;;;5071453;28;20492;-81
2022/06/08 12:26:50;;;;;;;3.03;0.40;;;38.80;68.20;;;;;;5075739;28;20032;-81
2022/06/08 12:29:39;;;;;;;1.60;0.38;;;40.00;72.10;;;;;;5072756;28;20025;-81
2022/06/08 12:32:08;;;;;;;0.65;0.45;;;42.20;65.80;;;;;;5076675;28;20106;-81
2022/06/08 12:34:41;;;;;;;1.17;0.40;;;43.60;63.80;;;;;;5072007;28;20031;-81
2022/06/08 12:37:30;;;;;;;2.25;0.60;;;44.90;61.60;;;;;;5074459;28;20263;-81
2022/06/08 12:39:58;;;;;;;0.77;0.40;;;46.90;60.00;;;;;;5073470;28;20028;-81
2022/06/08 12:42:24;;;;;;;1.88;0.70;;;48.50;57.00;;;;;;5076658;28;20032;-82
2022/06/08 12:44:55;;;;;;;2.10;0.60;;;49.30;55.90;;;;;;5076309;28;20035;-82
2022/06/08 12:47:26;;;;;;;0.73;0.50;;;50.50;54.00;;;;;;5072448;28;20021;-82
2022/06/08 12:49:59;;;;;;;1.70;0.30;;;51.50;52.90;;;;;;5073297;28;20039;-82
2022/06/08 12:52:32;;;;;;;1.02;0.45;;;52.60;49.90;;;;;;5075257;28;20032;-81
2022/06/08 12:54:59;;;;;;;3.80;0.60;;;53.90;49.40;;;;;;5077223;28;20029;-82
2022/06/08 12:57:31;;;;;;;2.55;0.47;;;54.20;46.90;;;;;;5076071;28;20021;-82
2022/06/08 13:00:00;;;;;;;1.25;0.40;;;53.80;47.00;;;;;;5073025;28;20039;-81
2022/06/08 13:02:38;;;;;;;0.85;0.38;;;54.30;46.20;;;;;;5076308;28;20037;-82
2022/06/08 13:05:28;;;;;;;3.67;0.50;;;53.40;46.20;;;;;;5073314;28;20024;-82
2022/06/08 13:07:55;;;;;;;0.40;0.40;;;52.70;45.70;;;;;;5077943;28;20081;-81
2022/06/08 13:10:25;;;;;;;1.88;0.40;;;52.60;45.40;;;;;;5077765;28;20244;-82
2022/06/08 13:12:55;;;;;;;1.15;0.40;;;52.80;45.20;;;;;;5081006;28;20052;-82
2022/06/08 13:15:22;;;;;;;0.30;0.30;;;52.90;45.50;;;;;;5078187;28;20084;-81
2022/06/08 13:17:48;;;;;;;0.80;0.30;;;52.70;45.00;;;;;;5079628;28;20535;-82
2022/06/08 13:20:20;;;;;;;3.53;0.57;;;52.70;44.10;;;;;;5077086;28;20020;-82
2022/06/08 13:22:46;;;;;;;0.43;0.40;;;53.00;44.50;;;;;;5078129;28;20025;-82
2022/06/08 13:25:18;;;;;;;1.35;0.30;;;53.10;44.40;;;;;;5081104;28;20024;-82
2022/06/08 13:27:45;;;;;;;0.38;0.38;;;53.50;42.90;;;;;;5079952;28;20032;-82
2022/06/08 13:30:33;;;;;;;0.60;0.50;;;53.60;42.90;;;;;;5071157;28;20498;-82
2022/06/08 13:32:59;;;;;;;0.75;0.40;;;52.90;43.80;;;;;;5072696;28;20055;-82
2022/06/08 13:35:27;;;;;;;0.55;0.55;;;52.30;42.50;;;;;;5072511;28;20013;-81
2022/06/08 13:37:53;;;;;;;1.45;0.47;;;51.60;42.90;;;;;;5088048;28;20024;-82